KLEX Airport Diagram

We have created a template for each of the higher traffic airports in the vZID airspace. They include KCMH, KCRW, KCVG, KDAY, KIND, KLEX and KSDF. You wil find usefull information including the airport diagram, weather, and specific airport procedures.

KLEX Weather

[Source: ADDS]
METAR
KLEX 240754Z 07010KT 10SM -RA FEW060 SCT075 OVC085 12/09 A2994 RMK AO2 SLP135 P0005 T01170094 =
TAF
KLEX 240537Z 2406/2506 07009KT 6SM -RA OVC050 FM240900 07010KT 6SM -RA BR SCT025 OVC040 TEMPO 2409/2413 4SM -SHRA OVC025 FM241300 09009KT P6SM OVC025 TEMPO 2413/2417 5SM -SHRA BR BKN017 FM241700 05005KT 6SM BR VCSH OVC015 FM242100 01007KT P6SM OVC015 PROB30 2421/2503 4SM -SHRA OVC010 FM250300 35007KT 6SM BR OVC007 =

KLEX Operations

Calm wind runway at KLEX is Runway 22, up to and including 10kts.

Default scenery shows Runway 8/26, which crosses Runway 22. When taxiing to Runway 22, clearance to cross Runway 26 not required.

Updated scenery available at www.flightsim.com.

 

JSN Epic template designed by JoomlaShine.com